Hlavní strana
METAR-TAF:

METAR-TAF

Letiště :

Concord, Severní Karolína, Spojené státy americké

zeměpisná šířka: 35-23-07N, zeměpisná délka: 080-42-35W, výška: 210 m

Aktuální stav počasí

Zpráva byla vytvořena před 27 minutami, v 21:50 UTC
Západojihozápadní vítr 5 kt
Teplota 27°C
Vlhkost vzduchu 28%
Tlak 1016 hPa
Viditelnost: 16.1 km
Jasno

METAR: KJQF 062150Z 24005KT 10SM CLR 27/07 A3000

Čas: 18:17 (22:17 UTC)


TAF: chybějící

Stav a předpovědi počasí z více než 4 000 letišť (zprávy METAR a TAF).

Červené a žluté tečky na mapě představují dostupné meteorologické stanice.

Když kurzor umístíte na tečku, zobrazí se název stanice.

Pak kliknutím zobrazíte stav a předpověď počasí.

Chcete-li změnit mapu, kliknutím na zelené tlačítko se znaménkem +mapu přiblížíte, kliknutím na zelené tlačítko se znaménkem – mapu oddálíte a kliknutím na zelené šipky přejdete na sousední mapy.


METAR-TAF: